Time;durP1;ratioP1;P1;durP2;ratioP2;P2;SDS_P1;SDS_P2;PMS_P1;PMS_P2;Temp;Humidity;BMP_temperature;BMP_pressure;BME280_temperature;BME280_humidity;BME280_pressure;Samples;Min_cycle;Max_cycle;Signal;HPM_P1;HPM_P2
2022/06/11 00:01:50;;;;;;;;;;;;;;;15.37;100.00;102025.41;2619328;36;20001;-59
2022/06/11 00:04:23;;;;;;;;;;;;;;;15.34;100.00;102033.81;2613510;36;19946;-58
2022/06/11 00:06:52;;;;;;;;;;;;;;;15.34;100.00;102038.38;2613569;36;19947;-59
2022/06/11 00:09:21;;;;;;;;;;;;;;;15.24;100.00;102041.91;2613257;36;19954;-58
2022/06/11 00:11:51;;;;;;;;;;;;;;;15.30;100.00;102045.09;2613291;31;19954;-59
2022/06/11 00:14:20;;;;;;;;;;;;;;;15.31;100.00;102039.53;2613563;36;19951;-58
2022/06/11 00:16:51;;;;;;;;;;;;;;;15.24;100.00;102046.50;2614062;36;20355;-58
2022/06/11 00:26:58;;;;;;;;;;;;;;;15.20;100.00;102042.34;2612586;36;19958;-57
2022/06/11 00:29:28;;;;;;;;;;;;;;;15.12;100.00;102044.88;2614027;36;20375;-60
2022/06/11 00:31:59;;;;;;;;;;;;;;;15.07;100.00;102038.03;2613431;36;20543;-61
2022/06/11 00:34:31;;;;;;;;;;;;;;;15.03;100.00;102035.69;2614544;36;19954;-57
2022/06/11 00:44:27;;;;;;;;;;;;;;;14.98;100.00;102033.41;2612661;36;20041;-61
2022/06/11 00:54:18;;;;;;;;;;;;;;;14.89;100.00;102031.50;2614403;36;19954;-58
2022/06/11 00:56:48;;;;;;;;;;;;;;;14.87;100.00;102025.38;2619556;36;20352;-58
2022/06/11 00:59:19;;;;;;;;;;;;;;;14.82;100.00;102028.47;2615754;36;20426;-57
2022/06/11 01:01:47;;;;;;;;;;;;;;;14.77;100.00;102025.31;2614945;36;20399;-58
2022/06/11 01:11:58;;;;;;;;;;;;;;;14.79;100.00;102022.47;2614789;36;20336;-59
2022/06/11 01:14:35;;;;;;;;;;;;;;;14.78;100.00;102027.06;2615373;31;19973;-57
2022/06/11 01:17:08;;;;;;;;;;;;;;;14.77;100.00;102032.59;2615386;36;19950;-58
2022/06/11 01:27:08;;;;;;;;;;;;;;;14.79;100.00;102017.06;2614308;36;20582;-58
2022/06/11 01:44:21;;;;;;;;;;;;;;;14.71;100.00;102015.03;2614296;36;20347;-57
2022/06/11 01:46:51;;;;;;;;;;;;;;;14.68;100.00;102016.16;2615205;36;19953;-56
2022/06/11 01:49:43;;;;;;;;;;;;;;;14.67;100.00;102008.16;2615322;36;20316;-60
2022/06/11 01:52:21;;;;;;;;;;;;;;;14.76;100.00;102009.19;2614593;36;19947;-59
2022/06/11 01:54:52;;;;;;;;;;;;;;;14.79;100.00;102011.63;2615029;36;20020;-57
2022/06/11 01:57:27;;;;;;;;;;;;;;;14.75;100.00;102010.19;2615588;31;19946;-61
2022/06/11 02:07:35;;;;;;;;;;;;;;;14.73;100.00;102004.91;2613010;36;20075;-58
2022/06/11 02:10:07;;;;;;;;;;;;;;;14.70;100.00;102014.16;2613955;36;19953;-58
2022/06/11 02:12:40;;;;;;;;;;;;;;;14.63;100.00;102007.56;2613693;36;19947;-59
2022/06/11 02:15:11;;;;;;;;;;;;;;;14.57;100.00;102010.78;2614254;36;20355;-59
2022/06/11 02:17:41;;;;;;;;;;;;;;;14.56;100.00;102000.94;2613564;36;20584;-57
2022/06/11 02:20:11;;;;;;;;;;;;;;;14.47;100.00;102007.16;2613754;36;19946;-57
2022/06/11 02:22:45;;;;;;;;;;;;;;;14.49;100.00;102016.03;2612946;36;19947;-58
2022/06/11 02:25:16;;;;;;;;;;;;;;;14.39;100.00;102006.97;2613015;36;19997;-55
2022/06/11 02:27:46;;;;;;;;;;;;;;;14.44;100.00;102012.84;2613045;36;19951;-56
2022/06/11 02:30:17;;;;;;;;;;;;;;;14.50;100.00;102017.72;2614021;36;19970;-61
2022/06/11 02:32:45;;;;;;;;;;;;;;;14.48;100.00;102017.84;2613829;36;20007;-59
2022/06/11 02:35:15;;;;;;;;;;;;;;;14.50;100.00;102028.53;2613774;36;19957;-61
2022/06/11 02:37:48;;;;;;;;;;;;;;;14.50;100.00;102021.31;2613267;36;20666;-59
2022/06/11 02:40:19;;;;;;;;;;;;;;;14.59;100.00;102016.06;2613309;31;19983;-59
2022/06/11 02:42:47;;;;;;;;;;;;;;;14.60;100.00;102018.63;2613691;36;19957;-58
2022/06/11 02:45:15;;;;;;;;;;;;;;;14.57;100.00;102018.06;2614205;36;20325;-59
2022/06/11 02:47:45;;;;;;;;;;;;;;;14.59;100.00;102019.63;2613726;36;19953;-61
2022/06/11 02:50:18;;;;;;;;;;;;;;;14.54;100.00;102025.44;2613456;31;19950;-61
2022/06/11 02:52:49;;;;;;;;;;;;;;;14.45;100.00;102030.81;2613842;36;19946;-58
2022/06/11 02:55:18;;;;;;;;;;;;;;;14.41;100.00;102030.19;2613207;36;19958;-59
2022/06/11 02:57:46;;;;;;;;;;;;;;;14.35;100.00;102028.91;2613381;36;19951;-59
2022/06/11 03:00:18;;;;;;;;;;;;;;;14.31;100.00;102032.00;2613911;36;19981;-57
2022/06/11 03:02:48;;;;;;;;;;;;;;;14.36;100.00;102038.72;2613774;36;19947;-59
2022/06/11 03:05:17;;;;;;;;;;;;;;;14.33;100.00;102040.84;2614108;36;20005;-59
2022/06/11 03:07:45;;;;;;;;;;;;;;;14.35;100.00;102047.00;2613289;36;19955;-59
2022/06/11 03:10:17;;;;;;;;;;;;;;;14.27;100.00;102044.94;2613643;36;19947;-59
2022/06/11 03:12:45;;;;;;;;;;;;;;;14.33;100.00;102049.81;2613356;36;20789;-60
2022/06/11 03:15:14;;;;;;;;;;;;;;;14.30;100.00;102055.50;2614014;31;20418;-58
2022/06/11 03:17:42;;;;;;;;;;;;;;;14.27;100.00;102055.78;2614106;36;19978;-59
2022/06/11 03:20:12;;;;;;;;;;;;;;;14.27;100.00;102055.78;2613913;31;19950;-58
2022/06/11 03:22:40;;;;;;;;;;;;;;;14.21;100.00;102056.31;2613701;36;19954;-59
2022/06/11 03:25:09;;;;;;;;;;;;;;;14.18;100.00;102048.44;2613320;36;19946;-59
2022/06/11 03:27:41;;;;;;;;;;;;;;;14.26;100.00;102056.75;2613750;36;19986;-58
2022/06/11 03:30:09;;;;;;;;;;;;;;;14.19;100.00;102055.56;2614071;36;19953;-60
2022/06/11 03:32:37;;;;;;;;;;;;;;;14.17;100.00;102050.28;2613817;36;20550;-60
2022/06/11 03:35:06;;;;;;;;;;;;;;;14.11;100.00;102058.06;2613583;36;19960;-57
2022/06/11 03:37:34;;;;;;;;;;;;;;;14.27;100.00;102055.78;2613712;36;19978;-59
2022/06/11 03:40:02;;;;;;;;;;;;;;;14.26;100.00;102056.75;2613726;36;19955;-59
2022/06/11 03:42:30;;;;;;;;;;;;;;;14.22;100.00;102052.59;2613910;36;19978;-60
2022/06/11 03:45:01;;;;;;;;;;;;;;;14.16;100.00;102058.53;2613427;36;19978;-59
2022/06/11 03:47:29;;;;;;;;;;;;;;;14.17;100.00;102065.66;2613892;36;19953;-59
2022/06/11 03:49:57;;;;;;;;;;;;;;;14.19;100.00;102059.16;2613653;36;19950;-62
2022/06/11 03:52:28;;;;;;;;;;;;;;;14.16;100.00;102069.38;2613644;31;19958;-57
2022/06/11 03:54:57;;;;;;;;;;;;;;;14.23;100.00;102064.31;2613569;36;19956;-58
2022/06/11 03:57:25;;;;;;;;;;;;;;;14.21;100.00;102072.56;2613391;36;19950;-59
2022/06/11 03:59:53;;;;;;;;;;;;;;;14.24;100.00;102072.28;2614066;36;19950;-58
2022/06/11 04:02:24;;;;;;;;;;;;;;;14.29;100.00;102074.59;2613328;36;19947;-58
2022/06/11 04:04:52;;;;;;;;;;;;;;;14.34;100.00;102075.09;2613461;36;19980;-60
2022/06/11 04:07:20;;;;;;;;;;;;;;;14.34;100.00;102077.78;2613444;36;19985;-59
2022/06/11 04:09:48;;;;;;;;;;;;;;;14.34;100.00;102086.75;2613713;36;19973;-58
2022/06/11 04:12:18;;;;;;;;;;;;;;;14.34;100.00;102081.34;2613310;36;19958;-59
2022/06/11 04:14:47;;;;;;;;;;;;;;;14.43;100.00;102092.38;2613195;36;20305;-58
2022/06/11 04:17:18;;;;;;;;;;;;;;;14.41;100.00;102095.22;2613609;36;19954;-58
2022/06/11 04:19:50;;;;;;;;;;;;;;;14.49;100.00;102097.28;2613518;36;19951;-59
2022/06/11 04:22:18;;;;;;;;;;;;;;;14.57;100.00;102094.75;2613028;36;19989;-56
2022/06/11 04:24:47;;;;;;;;;;;;;;;14.48;100.00;102095.56;2613125;36;20379;-57
2022/06/11 04:27:16;;;;;;;;;;;;;;;14.49;100.00;102103.56;2612936;36;20016;-57
2022/06/11 04:29:47;;;;;;;;;;;;;;;14.54;100.00;102111.28;2613312;36;19958;-59
2022/06/11 04:32:16;;;;;;;;;;;;;;;14.59;100.00;102108.16;2612994;31;19989;-61
2022/06/11 04:34:45;;;;;;;;;;;;;;;14.49;100.00;102108.97;2613437;36;19950;-60
2022/06/11 04:37:17;;;;;;;;;;;;;;;14.57;100.00;102111.00;2613282;36;20436;-60
2022/06/11 04:39:47;;;;;;;;;;;;;;;14.56;100.00;102131.00;2613367;31;20083;-58
2022/06/11 04:42:15;;;;;;;;;;;;;;;14.64;100.00;102117.66;2613007;36;19951;-60
2022/06/11 04:44:45;;;;;;;;;;;;;;;14.67;100.00;102114.69;2613465;36;19950;-58
2022/06/11 04:47:14;;;;;;;;;;;;;;;14.68;100.00;102123.69;2613417;36;20436;-62
2022/06/11 04:49:42;;;;;;;;;;;;;;;14.83;100.00;102116.09;2613405;36;19974;-59
2022/06/11 04:52:10;;;;;;;;;;;;;;;14.92;100.00;102114.44;2613255;36;20395;-61
2022/06/11 04:54:41;;;;;;;;;;;;;;;14.79;100.00;102122.75;2612928;31;19953;-62
2022/06/11 04:57:09;;;;;;;;;;;;;;;14.90;100.00;102119.97;2613079;36;19954;-59
2022/06/11 04:59:37;;;;;;;;;;;;;;;14.90;100.00;102119.97;2613360;36;19986;-63
2022/06/11 05:02:06;;;;;;;;;;;;;;;14.94;100.00;102117.84;2613179;36;19950;-59
2022/06/11 05:04:35;;;;;;;;;;;;;;;14.91;100.00;102123.53;2613460;36;20535;-60
2022/06/11 05:07:03;;;;;;;;;;;;;;;14.90;100.00;102128.13;2613191;36;20452;-58
2022/06/11 05:09:31;;;;;;;;;;;;;;;15.00;100.00;102117.31;2613307;36;19957;-59
2022/06/11 05:12:02;;;;;;;;;;;;;;;15.13;100.00;102122.53;2613256;36;19950;-58
2022/06/11 05:14:30;;;;;;;;;;;;;;;15.13;100.00;102122.53;2613366;36;19954;-60
2022/06/11 05:16:59;;;;;;;;;;;;;;;15.21;100.00;102118.13;2613538;36;19981;-63
2022/06/11 05:19:28;;;;;;;;;;;;;;;15.19;100.00;102125.56;2613494;36;19947;-58
2022/06/11 05:21:56;;;;;;;;;;;;;;;15.27;100.00;102127.59;2613178;31;19983;-59
2022/06/11 05:24:24;;;;;;;;;;;;;;;15.25;100.00;102124.13;2612947;31;19950;-60
2022/06/11 05:26:55;;;;;;;;;;;;;;;15.45;100.00;102126.94;2613223;36;19951;-60
2022/06/11 05:29:28;;;;;;;;;;;;;;;15.29;100.00;102122.03;2614227;36;20356;-58
2022/06/11 05:31:56;;;;;;;;;;;;;;;15.45;100.00;102126.94;2613157;36;19946;-58
2022/06/11 05:34:25;;;;;;;;;;;;;;;15.50;100.00;102132.81;2613650;36;19980;-60
2022/06/11 05:36:53;;;;;;;;;;;;;;;15.63;100.00;102130.72;2614251;36;19989;-58
2022/06/11 05:39:21;;;;;;;;;;;;;;;15.77;100.00;102129.47;2614446;36;20006;-61
2022/06/11 05:41:49;;;;;;;;;;;;;;;15.70;100.00;102129.16;2614008;36;19953;-59
2022/06/11 05:44:17;;;;;;;;;;;;;;;15.71;100.00;102130.03;2614348;36;20460;-59
2022/06/11 05:46:48;;;;;;;;;;;;;;;15.81;100.00;102135.50;2614287;36;19955;-62
2022/06/11 05:49:18;;;;;;;;;;;;;;;15.77;100.00;102140.34;2614327;36;19957;-60
2022/06/11 05:51:49;;;;;;;;;;;;;;;15.96;100.00;102136.84;2613941;36;19946;-59
2022/06/11 05:54:20;;;;;;;;;;;;;;;15.98;100.00;102125.84;2613900;36;19973;-58
2022/06/11 05:56:49;;;;;;;;;;;;;;;15.81;100.00;102130.06;2614003;31;19947;-60
2022/06/11 05:59:20;;;;;;;;;;;;;;;16.08;100.00;102130.28;2614281;36;19947;-59
2022/06/11 06:01:52;;;;;;;;;;;;;;;15.98;100.00;102129.41;2614391;36;19978;-58
2022/06/11 06:04:20;;;;;;;;;;;;;;;16.09;100.00;102137.44;2613824;36;19951;-59
2022/06/11 06:06:48;;;;;;;;;;;;;;;16.21;100.00;102134.56;2614081;36;19977;-60
2022/06/11 06:09:16;;;;;;;;;;;;;;;16.14;100.00;102137.00;2614149;36;19977;-58
2022/06/11 06:11:44;;;;;;;;;;;;;;;16.19;100.00;102147.44;2613386;36;19969;-58
2022/06/11 06:14:12;;;;;;;;;;;;;;;16.38;100.00;102143.88;2613956;36;20317;-63
2022/06/11 06:16:40;;;;;;;;;;;;;;;16.56;100.00;102154.88;2614054;36;19946;-57
2022/06/11 06:19:11;;;;;;;;;;;;;;;16.66;100.00;102147.56;2613942;36;19954;-61
2022/06/11 06:21:39;;;;;;;;;;;;;;;17.07;100.00;102153.69;2614108;36;19974;-60
2022/06/11 06:24:08;;;;;;;;;;;;;;;17.22;100.00;102140.47;2612721;36;19951;-59
2022/06/11 06:26:36;;;;;;;;;;;;;;;17.50;100.00;102144.09;2613884;36;19946;-64
2022/06/11 06:29:05;;;;;;;;;;;;;;;17.40;100.00;102148.72;2613509;36;19951;-63
2022/06/11 06:31:33;;;;;;;;;;;;;;;17.62;100.00;102152.03;2614209;36;19951;-60
2022/06/11 06:34:01;;;;;;;;;;;;;;;17.36;100.00;102144.56;2613331;36;20471;-59
2022/06/11 06:36:32;;;;;;;;;;;;;;;17.58;100.00;102150.63;2614557;36;20344;-61
2022/06/11 06:39:01;;;;;;;;;;;;;;;17.75;100.00;102148.97;2613942;36;19977;-59
2022/06/11 06:41:29;;;;;;;;;;;;;;;18.15;100.00;102159.50;2613522;36;19953;-61
2022/06/11 06:43:57;;;;;;;;;;;;;;;18.14;100.00;102162.41;2613782;36;19950;-62
2022/06/11 06:46:25;;;;;;;;;;;;;;;18.00;100.00;102166.47;2613414;36;19962;-61
2022/06/11 06:48:54;;;;;;;;;;;;;;;18.15;100.00;102158.63;2614256;36;19954;-60
2022/06/11 06:51:23;;;;;;;;;;;;;;;18.31;100.00;102163.41;2613884;36;19977;-61
2022/06/11 06:53:53;;;;;;;;;;;;;;;18.24;100.00;102163.19;2613386;36;19950;-62
2022/06/11 06:56:25;;;;;;;;;;;;;;;18.35;100.00;102165.66;2613102;36;19950;-60
2022/06/11 06:58:53;;;;;;;;;;;;;;;18.41;100.00;102164.19;2614042;36;19976;-61
2022/06/11 07:01:21;;;;;;;;;;;;;;;18.50;100.00;102162.38;2613689;36;20475;-60
2022/06/11 07:03:49;;;;;;;;;;;;;;;18.15;100.00;102169.53;2613939;31;19950;-59
2022/06/11 07:06:17;;;;;;;;;;;;;;;18.39;100.00;102160.75;2613790;36;19984;-60
2022/06/11 07:08:46;;;;;;;;;;;;;;;18.32;100.00;102159.66;2613747;36;19977;-58
2022/06/11 07:11:16;;;;;;;;;;;;;;;18.50;100.00;102157.78;2613529;36;20360;-62
2022/06/11 07:13:45;;;;;;;;;;;;;;;18.43;100.00;102162.13;2613849;36;19981;-60
2022/06/11 07:16:14;;;;;;;;;;;;;;;18.70;100.00;102171.25;2613376;36;19977;-60
2022/06/11 07:18:43;;;;;;;;;;;;;;;19.06;100.00;102163.03;2613587;36;19954;-62
2022/06/11 07:21:30;;;;;;;;;;;;;;;19.14;100.00;102160.34;2613998;36;20441;-60
2022/06/11 07:24:00;;;;;;;;;;;;;;;18.71;100.00;102153.88;2613532;36;19989;-63
2022/06/11 07:26:33;;;;;;;;;;;;;;;18.83;100.00;102162.66;2613575;31;19946;-59
2022/06/11 07:29:03;;;;;;;;;;;;;;;18.93;100.00;102163.44;2613651;36;19947;-60
2022/06/11 07:31:31;;;;;;;;;;;;;;;19.09;100.00;102162.69;2613963;36;20376;-59
2022/06/11 07:34:00;;;;;;;;;;;;;;;19.35;100.00;102157.22;2613740;36;19955;-60
2022/06/11 07:36:28;;;;;;;;;;;;;;;19.18;100.00;102156.25;2613761;36;19954;-59
2022/06/11 07:38:56;;;;;;;;;;;;;;;19.08;100.00;102150.09;2613722;36;19953;-59
2022/06/11 07:41:24;;;;;;;;;;;;;;;19.21;100.00;102158.69;2613308;36;19955;-59
2022/06/11 07:43:55;;;;;;;;;;;;;;;19.18;100.00;102153.53;2614050;31;19950;-59
2022/06/11 07:46:23;;;;;;;;;;;;;;;19.15;100.00;102156.59;2614064;36;20051;-61
2022/06/11 07:48:51;;;;;;;;;;;;;;;19.68;100.00;102157.38;2614092;36;19987;-58
2022/06/11 07:51:20;;;;;;;;;;;;;;;19.94;100.00;102151.84;2614070;36;20038;-60
2022/06/11 07:53:48;;;;;;;;;;;;;;;19.37;100.00;102154.34;2613705;36;19947;-61
2022/06/11 07:56:17;;;;;;;;;;;;;;;19.59;100.00;102148.28;2612609;31;19970;-62
2022/06/11 07:58:45;;;;;;;;;;;;;;;19.76;100.00;102153.84;2613222;36;19981;-58
2022/06/11 08:01:16;;;;;;;;;;;;;;;19.76;100.00;102154.69;2613839;36;19958;-58
2022/06/11 08:03:44;;;;;;;;;;;;;;;19.81;100.00;102158.81;2613838;31;19946;-59
2022/06/11 08:06:12;;;;;;;;;;;;;;;19.78;100.00;102163.59;2613532;36;20367;-62
2022/06/11 08:08:40;;;;;;;;;;;;;;;19.71;100.00;102161.66;2612908;36;20425;-63
2022/06/11 08:11:09;;;;;;;;;;;;;;;19.81;100.00;102170.59;2613486;36;20363;-59
2022/06/11 08:13:37;;;;;;;;;;;;;;;19.95;100.00;102172.72;2614116;36;20374;-59
2022/06/11 08:16:06;;;;;;;;;;;;;;;20.00;100.00;102174.09;2612688;36;19990;-62
2022/06/11 08:18:37;;;;;;;;;;;;;;;20.12;100.00;102175.47;2612874;36;19951;-58
2022/06/11 08:21:05;;;;;;;;;;;;;;;20.14;100.00;102162.53;2613212;36;19957;-59
2022/06/11 08:23:33;;;;;;;;;;;;;;;20.56;100.00;102164.25;2612988;36;19946;-59
2022/06/11 08:26:03;;;;;;;;;;;;;;;20.72;100.00;102168.06;2612562;36;20467;-58
2022/06/11 08:28:31;;;;;;;;;;;;;;;20.97;100.00;102169.75;2612969;36;20444;-58
2022/06/11 08:30:59;;;;;;;;;;;;;;;20.61;100.00;102170.09;2613285;36;19957;-59
2022/06/11 08:33:27;;;;;;;;;;;;;;;20.78;100.00;102172.84;2613461;36;19947;-59
2022/06/11 08:35:58;;;;;;;;;;;;;;;20.71;100.00;102180.03;2613143;36;19955;-59
2022/06/11 08:38:26;;;;;;;;;;;;;;;20.19;100.00;102173.78;2612727;36;19950;-58
2022/06/11 08:40:56;;;;;;;;;;;;;;;20.56;100.00;102171.63;2613273;36;19988;-58
2022/06/11 08:43:26;;;;;;;;;;;;;;;20.59;100.00;102172.13;2613279;36;19947;-59
2022/06/11 08:45:56;;;;;;;;;;;;;;;20.99;100.00;102166.81;2612898;31;20039;-60
2022/06/11 08:48:31;;;;;;;;;;;;;;;20.72;100.00;102168.91;2612688;31;19954;-59
2022/06/11 08:51:07;;;;;;;;;;;;;;;20.56;100.00;102175.19;2613455;36;19962;-59
2022/06/11 08:53:37;;;;;;;;;;;;;;;20.79;100.00;102158.16;2613329;36;19950;-58
2022/06/11 08:56:05;;;;;;;;;;;;;;;20.68;100.00;102163.97;2613318;36;19955;-59
2022/06/11 08:58:42;;;;;;;;;;;;;;;20.88;100.00;102167.22;2612783;36;19981;-62
2022/06/11 09:01:15;;;;;;;;;;;;;;;20.99;100.00;102164.97;2613026;36;20364;-59
2022/06/11 09:04:02;;;;;;;;;;;;;;;20.99;100.00;102173.19;2613735;36;20343;-59
2022/06/11 09:06:44;;;;;;;;;;;;;;;20.80;100.00;102179.00;2613221;36;19951;-58
2022/06/11 09:09:16;;;;;;;;;;;;;;;21.04;100.00;102175.38;2613650;36;19951;-59
2022/06/11 09:11:53;;;;;;;;;;;;;;;21.14;100.00;102181.53;2613779;36;19973;-58
2022/06/11 09:14:43;;;;;;;;;;;;;;;21.29;100.00;102167.97;2614058;31;19950;-59
2022/06/11 09:17:20;;;;;;;;;;;;;;;21.21;100.00;102170.72;2613903;36;19958;-60
2022/06/11 09:19:54;;;;;;;;;;;;;;;21.13;100.00;102181.72;2613852;36;19951;-59
2022/06/11 09:22:31;;;;;;;;;;;;;;;21.45;100.00;102172.56;2613931;36;19985;-61
2022/06/11 09:25:07;;;;;;;;;;;;;;;20.99;100.00;102178.66;2613987;36;19947;-58
2022/06/11 09:27:38;;;;;;;;;;;;;;;21.16;100.00;102174.00;2613910;31;19950;-59
2022/06/11 09:30:07;;;;;;;;;;;;;;;21.67;100.00;102183.78;2614211;36;19982;-59
2022/06/11 09:32:40;;;;;;;;;;;;;;;21.78;99.33;102177.91;2614298;31;19954;-59
2022/06/11 09:35:11;;;;;;;;;;;;;;;21.61;100.00;102170.81;2614669;36;20360;-58
2022/06/11 09:37:48;;;;;;;;;;;;;;;21.87;100.00;102171.34;2614337;31;19947;-62
2022/06/11 09:40:21;;;;;;;;;;;;;;;21.79;100.00;102178.75;2613690;36;20451;-61
2022/06/11 09:42:56;;;;;;;;;;;;;;;22.12;100.00;102178.63;2613476;36;19958;-58
2022/06/11 09:45:30;;;;;;;;;;;;;;;21.85;100.00;102178.06;2614170;31;19947;-59
2022/06/11 09:48:01;;;;;;;;;;;;;;;22.19;100.00;102182.34;2613888;36;19955;-59
2022/06/11 09:50:32;;;;;;;;;;;;;;;21.84;96.77;102179.09;2613833;31;20432;-59
2022/06/11 09:53:10;;;;;;;;;;;;;;;21.66;91.39;102184.84;2614056;31;20380;-59
2022/06/11 09:55:42;;;;;;;;;;;;;;;22.07;100.00;102189.25;2613416;36;19955;-58
2022/06/11 09:58:17;;;;;;;;;;;;;;;22.61;89.89;102197.50;2613572;36;19951;-60
2022/06/11 10:00:48;;;;;;;;;;;;;;;22.46;85.83;102191.94;2614410;36;19954;-58
2022/06/11 10:03:23;;;;;;;;;;;;;;;22.71;80.81;102189.84;2613908;36;19950;-59
2022/06/11 10:05:55;;;;;;;;;;;;;;;22.86;89.67;102189.06;2614013;36;19973;-60
2022/06/11 10:08:31;;;;;;;;;;;;;;;23.24;90.07;102189.91;2613202;36;19946;-59
2022/06/11 10:11:01;;;;;;;;;;;;;;;22.82;88.98;102188.59;2613460;36;19961;-59
2022/06/11 10:13:38;;;;;;;;;;;;;;;22.60;89.14;102187.56;2613986;36;19973;-58
2022/06/11 10:16:10;;;;;;;;;;;;;;;22.60;79.38;102190.31;2614256;31;19952;-59
2022/06/11 10:18:40;;;;;;;;;;;;;;;22.97;91.93;102185.88;2613420;36;19946;-60
2022/06/11 10:21:11;;;;;;;;;;;;;;;22.69;86.28;102197.44;2614255;36;19954;-58
2022/06/11 10:23:45;;;;;;;;;;;;;;;22.90;81.55;102193.97;2613158;36;19959;-59
2022/06/11 10:26:18;;;;;;;;;;;;;;;23.25;82.10;102191.63;2613381;36;19950;-59
2022/06/11 10:28:52;;;;;;;;;;;;;;;23.21;81.61;102190.28;2612842;36;20464;-58
2022/06/11 10:31:21;;;;;;;;;;;;;;;23.24;74.33;102208.28;2614433;36;20037;-59
2022/06/11 10:33:52;;;;;;;;;;;;;;;22.95;82.67;102201.66;2613759;31;21435;-58
2022/06/11 10:36:23;;;;;;;;;;;;;;;23.54;79.93;102200.94;2613410;36;19947;-59
2022/06/11 10:38:57;;;;;;;;;;;;;;;23.49;78.50;102202.53;2613246;36;19981;-58
2022/06/11 10:41:29;;;;;;;;;;;;;;;23.75;76.54;102197.41;2613812;36;19955;-58
2022/06/11 10:44:03;;;;;;;;;;;;;;;23.95;98.00;102191.31;2613101;36;19958;-57
2022/06/11 10:46:32;;;;;;;;;;;;;;;23.37;80.87;102203.00;2614217;36;20456;-61
2022/06/11 10:49:00;;;;;;;;;;;;;;;23.15;85.23;102193.78;2613853;36;19951;-58
2022/06/11 10:51:30;;;;;;;;;;;;;;;22.98;79.23;102195.81;2613792;31;19946;-58
2022/06/11 10:54:05;;;;;;;;;;;;;;;23.31;94.59;102190.00;2612809;36;19950;-59
2022/06/11 10:56:39;;;;;;;;;;;;;;;23.68;90.09;102198.34;2613476;36;19958;-60
2022/06/11 10:59:12;;;;;;;;;;;;;;;23.40;80.09;102191.63;2613927;31;19954;-59
2022/06/11 11:01:44;;;;;;;;;;;;;;;23.26;79.37;102197.94;2614727;31;19957;-59
2022/06/11 11:04:27;;;;;;;;;;;;;;;23.37;81.86;102188.41;2613552;36;19955;-61
2022/06/11 11:07:08;;;;;;;;;;;;;;;23.69;75.16;102187.16;2614208;36;20336;-59
2022/06/11 11:09:39;;;;;;;;;;;;;;;23.66;78.25;102194.94;2613806;36;19953;-58
2022/06/11 11:12:09;;;;;;;;;;;;;;;23.48;72.27;102196.16;2614653;31;20376;-60
2022/06/11 11:14:41;;;;;;;;;;;;;;;22.77;78.68;102198.41;2613889;36;19957;-60
2022/06/11 11:17:16;;;;;;;;;;;;;;;22.88;83.63;102195.22;2613659;36;19950;-59
2022/06/11 11:20:29;;;;;;;;;;;;;;;23.13;95.63;102186.75;2613457;36;19951;-59
2022/06/11 11:22:35;;;;;;;;;;;;;;;23.19;81.17;102186.88;2613533;36;20424;-58
2022/06/11 11:25:07;;;;;;;;;;;;;;;23.12;79.48;102187.81;2613089;36;19946;-58
2022/06/11 11:27:43;;;;;;;;;;;;;;;23.11;89.31;102184.22;2613603;31;19957;-59
2022/06/11 11:30:22;;;;;;;;;;;;;;;23.92;88.37;102180.72;2613558;36;19954;-60
2022/06/11 11:32:50;;;;;;;;;;;;;;;23.39;81.59;102181.66;2613459;36;19950;-62
2022/06/11 11:35:20;;;;;;;;;;;;;;;23.66;82.40;102173.81;2613981;36;19951;-60
2022/06/11 11:37:57;;;;;;;;;;;;;;;23.93;83.36;102172.25;2613710;36;20289;-60
2022/06/11 11:40:30;;;;;;;;;;;;;;;24.06;85.91;102171.56;2612998;36;19946;-61
2022/06/11 11:42:58;;;;;;;;;;;;;;;24.18;72.20;102173.81;2613114;36;19955;-59
2022/06/11 11:45:28;;;;;;;;;;;;;;;24.06;76.75;102174.31;2614156;36;19997;-58
2022/06/11 11:48:03;;;;;;;;;;;;;;;23.59;81.22;102170.13;2613690;36;19951;-60
2022/06/11 11:50:33;;;;;;;;;;;;;;;24.26;80.88;102166.31;2614075;36;19951;-60
2022/06/11 11:53:04;;;;;;;;;;;;;;;24.52;78.71;102166.75;2613431;36;19966;-62
2022/06/11 11:55:37;;;;;;;;;;;;;;;24.70;85.20;102171.81;2614157;31;20006;-60
2022/06/11 11:58:06;;;;;;;;;;;;;;;24.94;73.10;102163.13;2613256;36;19946;-62
2022/06/11 12:00:42;;;;;;;;;;;;;;;24.34;70.95;102168.06;2613800;36;19947;-58
2022/06/11 12:03:23;;;;;;;;;;;;;;;24.42;76.49;102167.91;2613201;36;19974;-59
2022/06/11 12:05:53;;;;;;;;;;;;;;;24.11;86.27;102162.75;2614173;36;20355;-60
2022/06/11 12:08:23;;;;;;;;;;;;;;;24.48;80.80;102161.66;2613349;31;19958;-60
2022/06/11 12:10:58;;;;;;;;;;;;;;;25.22;75.73;102165.03;2613834;36;20046;-58
2022/06/11 12:13:27;;;;;;;;;;;;;;;24.14;86.07;102163.22;2613302;36;19981;-58
2022/06/11 12:15:58;;;;;;;;;;;;;;;24.41;86.69;102157.97;2613971;36;20402;-59
2022/06/11 12:18:31;;;;;;;;;;;;;;;24.10;87.09;102161.91;2613577;36;19946;-59
2022/06/11 12:21:02;;;;;;;;;;;;;;;23.25;85.83;102164.16;2614193;36;20303;-61
2022/06/11 12:23:33;;;;;;;;;;;;;;;23.37;86.28;102171.94;2612474;36;19946;-59
2022/06/11 12:26:06;;;;;;;;;;;;;;;23.87;82.33;102158.44;2613435;36;19977;-61
2022/06/11 12:28:35;;;;;;;;;;;;;;;24.43;88.16;102160.53;2613354;36;20036;-62
2022/06/11 12:31:03;;;;;;;;;;;;;;;24.74;76.80;102149.19;2613668;31;19977;-60
2022/06/11 12:33:32;;;;;;;;;;;;;;;24.14;80.01;102145.84;2612661;36;19958;-59
2022/06/11 12:36:10;;;;;;;;;;;;;;;24.07;82.74;102144.91;2613141;36;19953;-59
2022/06/11 12:38:45;;;;;;;;;;;;;;;23.50;86.42;102155.63;2612423;36;19977;-59
2022/06/11 12:41:23;;;;;;;;;;;;;;;23.27;96.94;102152.97;2613265;36;19950;-59
2022/06/11 12:43:54;;;;;;;;;;;;;;;24.18;100.00;102157.31;2613548;36;19958;-59
2022/06/11 12:46:25;;;;;;;;;;;;;;;24.29;93.91;102151.28;2613572;36;20436;-60
2022/06/11 12:48:54;;;;;;;;;;;;;;;23.71;100.00;102157.59;2613626;31;19946;-60
2022/06/11 12:51:28;;;;;;;;;;;;;;;24.89;100.00;102153.75;2613639;36;19959;-59
2022/06/11 12:53:57;;;;;;;;;;;;;;;24.95;84.80;102158.47;2613145;36;19962;-58
2022/06/11 12:56:36;;;;;;;;;;;;;;;25.21;86.04;102160.56;2612856;36;19950;-62
2022/06/11 12:59:22;;;;;;;;;;;;;;;25.22;89.65;102158.63;2613214;36;19958;-61
2022/06/11 13:01:54;;;;;;;;;;;;;;;24.91;91.86;102157.16;2613011;36;19985;-59
2022/06/11 13:04:36;;;;;;;;;;;;;;;24.13;92.14;102153.25;2613492;36;19954;-58
2022/06/11 13:07:12;;;;;;;;;;;;;;;25.48;80.28;102153.31;2612654;36;19947;-58
2022/06/11 13:09:49;;;;;;;;;;;;;;;24.84;83.39;102157.97;2613926;36;20352;-59
2022/06/11 13:12:26;;;;;;;;;;;;;;;24.95;94.74;102159.31;2613040;36;19974;-60
2022/06/11 13:15:05;;;;;;;;;;;;;;;25.00;88.17;102167.84;2613412;31;19954;-60
2022/06/11 13:17:45;;;;;;;;;;;;;;;25.31;79.25;102168.50;2613151;36;19970;-60
2022/06/11 13:20:19;;;;;;;;;;;;;;;24.46;82.31;102169.25;2613886;31;20359;-61
2022/06/11 13:22:50;;;;;;;;;;;;;;;23.96;95.17;102166.38;2613385;36;19997;-59
2022/06/11 13:25:31;;;;;;;;;;;;;;;24.85;89.03;102169.81;2613106;36;19954;-58
2022/06/11 13:28:08;;;;;;;;;;;;;;;25.45;75.64;102156.47;2612575;36;20380;-60
2022/06/11 13:30:41;;;;;;;;;;;;;;;24.86;76.36;102160.50;2612988;36;19951;-59
2022/06/11 13:33:18;;;;;;;;;;;;;;;24.05;87.26;102160.78;2613124;36;20034;-59
2022/06/11 13:35:50;;;;;;;;;;;;;;;24.00;82.38;102165.97;2613472;31;19946;-60
2022/06/11 13:38:24;;;;;;;;;;;;;;;24.01;81.93;102171.28;2612953;36;20494;-59
2022/06/11 13:40:57;;;;;;;;;;;;;;;24.73;79.08;102168.66;2612993;31;19957;-60
2022/06/11 13:43:37;;;;;;;;;;;;;;;25.51;71.03;102163.09;2613250;36;20030;-60
2022/06/11 13:46:10;;;;;;;;;;;;;;;23.91;71.06;102168.00;2613365;31;20284;-59
2022/06/11 13:48:44;;;;;;;;;;;;;;;23.93;78.26;102164.00;2613283;36;19951;-60
2022/06/11 13:51:17;;;;;;;;;;;;;;;23.82;77.00;102171.88;2613018;36;19955;-61